createdAt,value
2019-04-26T00:02:51.687Z,5.03
2019-04-26T00:07:58.525Z,4.63
2019-04-26T00:13:38.999Z,4.93
2019-04-26T00:18:47.126Z,4.30
2019-04-26T00:23:57.313Z,4.17
2019-04-26T00:29:03.963Z,4.43
2019-04-26T00:34:09.550Z,4.60
2019-04-26T00:39:16.093Z,5.07
2019-04-26T00:44:22.915Z,4.67
2019-04-26T00:49:42.953Z,4.60
2019-04-26T00:54:41.165Z,5.17
2019-04-26T00:59:47.471Z,4.93
2019-04-26T01:04:54.858Z,4.53
2019-04-26T01:10:02.899Z,4.87
2019-04-26T01:15:09.157Z,5.83
2019-04-26T01:20:16.132Z,4.67
2019-04-26T01:26:03.662Z,4.47
2019-04-26T01:31:13.778Z,4.57
2019-04-26T01:36:20.612Z,5.27
2019-04-26T01:41:36.669Z,4.40
2019-04-26T01:46:44.903Z,4.97
2019-04-26T01:51:59.235Z,4.70
2019-04-26T01:57:07.612Z,5.43
2019-04-26T02:02:27.879Z,4.57
2019-04-26T02:07:40.346Z,5.10
2019-04-26T02:12:49.570Z,4.80
2019-04-26T02:17:57.522Z,4.77
2019-04-26T02:23:09.037Z,5.03
2019-04-26T02:28:16.247Z,5.50
2019-04-26T02:33:21.716Z,5.30
2019-04-26T02:38:29.279Z,4.60
2019-04-26T02:43:37.227Z,4.63
2019-04-26T02:49:22.261Z,4.50
2019-04-26T02:54:45.983Z,4.70
2019-04-26T02:59:55.183Z,4.57
2019-04-26T03:05:06.580Z,5.00
2019-04-26T03:10:14.113Z,5.53
2019-04-26T03:15:39.376Z,5.20
2019-04-26T03:20:47.745Z,4.63
2019-04-26T03:26:33.687Z,4.77
2019-04-26T03:32:18.823Z,4.80
2019-04-26T03:37:50.631Z,5.60
2019-04-26T03:43:19.458Z,4.90
2019-04-26T03:48:36.025Z,5.23
2019-04-26T03:53:57.651Z,4.70
2019-04-26T03:59:32.985Z,4.47
2019-04-26T04:04:48.519Z,6.43
2019-04-26T04:10:00.176Z,4.97
2019-04-26T04:15:11.154Z,6.03
2019-04-26T04:20:50.331Z,5.40
2019-04-26T04:25:59.740Z,5.47
2019-04-26T04:31:16.997Z,5.33
2019-04-26T04:36:27.289Z,4.43
2019-04-26T04:41:55.980Z,5.67
2019-04-26T04:47:24.144Z,4.77
2019-04-26T04:52:50.268Z,4.33
2019-04-26T04:58:17.134Z,5.10
2019-04-26T05:03:51.078Z,5.40
2019-04-26T05:09:00.769Z,4.70
2019-04-26T05:14:31.831Z,4.93
2019-04-26T05:20:07.377Z,5.27
2019-04-26T05:26:11.448Z,4.37
2019-04-26T05:31:32.953Z,5.13
2019-04-26T05:36:59.909Z,4.73
2019-04-26T05:49:45.862Z,4.90
2019-04-26T05:55:27.893Z,3.90
2019-04-26T06:01:20.128Z,3.90
2019-04-26T06:06:45.072Z,4.70
2019-04-26T06:12:02.325Z,4.40
2019-04-26T06:17:46.328Z,3.93
2019-04-26T06:23:10.984Z,4.07
2019-04-26T06:28:42.410Z,4.10
2019-04-26T06:34:06.800Z,3.90
2019-04-26T06:39:27.878Z,3.77
2019-04-26T06:44:58.348Z,4.07
2019-04-26T06:50:21.728Z,3.53
2019-04-26T06:55:39.998Z,3.33
2019-04-26T07:01:16.584Z,3.80
2019-04-26T07:06:34.939Z,4.40
2019-04-26T07:12:35.193Z,3.83
2019-04-26T07:18:22.129Z,4.10
2019-04-26T07:24:11.208Z,3.40
2019-04-26T07:29:59.106Z,3.00
2019-04-26T07:35:20.996Z,3.33
2019-04-26T07:41:29.373Z,3.37
2019-04-26T07:47:41.093Z,3.60
2019-04-26T07:53:23.298Z,4.13
2019-04-26T07:58:56.161Z,3.50
2019-04-26T08:04:10.008Z,3.17
2019-04-26T08:09:27.737Z,3.20
2019-04-26T08:15:01.905Z,3.10
2019-04-26T08:20:53.011Z,4.33
2019-04-26T08:26:09.207Z,3.40
2019-04-26T08:31:23.173Z,4.63
2019-04-26T08:36:44.876Z,3.23
2019-04-26T08:42:01.700Z,3.10
2019-04-26T08:47:41.852Z,2.73
2019-04-26T08:53:04.875Z,2.60
2019-04-26T08:58:21.287Z,3.27
2019-04-26T09:04:00.831Z,3.13
2019-04-26T09:09:27.480Z,2.77
2019-04-26T09:14:37.917Z,4.87
2019-04-26T09:19:54.963Z,2.40
2019-04-26T09:25:24.359Z,3.00
2019-04-26T09:30:47.675Z,2.40
2019-04-26T09:35:59.428Z,2.43
2019-04-26T09:41:12.895Z,2.43
2019-04-26T09:46:41.152Z,2.83
2019-04-26T09:51:57.632Z,2.10
2019-04-26T09:57:20.393Z,2.00
2019-04-26T10:02:35.557Z,2.30
2019-04-26T10:07:41.938Z,2.30
2019-04-26T10:13:09.788Z,2.30
2019-04-26T10:18:28.235Z,2.13
2019-04-26T10:23:43.779Z,1.97
2019-04-26T10:28:56.731Z,2.17
2019-04-26T10:34:03.023Z,2.43
2019-04-26T10:39:11.332Z,2.60
2019-04-26T10:44:16.861Z,2.13
2019-04-26T10:49:43.339Z,2.27
2019-04-26T10:54:53.576Z,2.17
2019-04-26T11:00:01.936Z,2.10
2019-04-26T11:05:11.593Z,2.67
2019-04-26T11:10:48.114Z,2.43
2019-04-26T11:15:54.172Z,1.90
2019-04-26T11:21:11.140Z,2.67
2019-04-26T11:26:23.704Z,1.87
2019-04-26T11:31:37.792Z,2.00
2019-04-26T11:36:54.961Z,2.43
2019-04-26T11:42:20.652Z,2.20
2019-04-26T11:47:54.250Z,3.20
2019-04-26T11:52:58.023Z,4.23
2019-04-26T11:58:05.765Z,4.93
2019-04-26T12:03:21.214Z,3.80
2019-04-26T12:08:48.738Z,4.30
2019-04-26T12:14:04.068Z,4.00
2019-04-26T12:19:19.552Z,3.43
2019-04-26T12:24:34.661Z,3.57
2019-04-26T12:29:58.504Z,2.70
2019-04-26T12:35:11.497Z,3.10
2019-04-26T12:40:24.652Z,3.30
2019-04-26T12:45:57.539Z,2.63
2019-04-26T12:51:13.479Z,3.27
2019-04-26T12:56:26.685Z,3.03
2019-04-26T13:01:42.561Z,2.80
2019-04-26T13:07:06.705Z,3.03
2019-04-26T13:12:29.858Z,3.23
2019-04-26T13:17:48.890Z,3.27
2019-04-26T13:23:02.791Z,2.80
2019-04-26T13:28:09.898Z,3.40
2019-04-26T13:33:26.928Z,2.83
2019-04-26T13:38:43.580Z,4.07
2019-04-26T13:44:01.285Z,3.30
2019-04-26T13:49:32.438Z,4.53
2019-04-26T13:54:51.185Z,3.73
2019-04-26T14:00:07.629Z,3.17
2019-04-26T14:05:26.675Z,3.33
2019-04-26T14:10:34.000Z,3.30
2019-04-26T14:15:43.286Z,3.30
2019-04-26T14:20:46.735Z,2.63
2019-04-26T14:26:25.071Z,2.53
2019-04-26T14:31:36.332Z,2.50
2019-04-26T14:37:05.563Z,2.20
2019-04-26T14:42:09.342Z,2.40
2019-04-26T14:47:30.537Z,2.07
2019-04-26T14:52:41.803Z,2.40
2019-04-26T14:57:55.880Z,3.23
2019-04-26T15:03:24.128Z,2.93
2019-04-26T15:08:32.605Z,2.77
2019-04-26T15:13:40.423Z,3.07
2019-04-26T15:18:46.233Z,2.57
2019-04-26T15:23:55.428Z,3.00
2019-04-26T15:28:58.648Z,3.17
2019-04-26T15:34:04.140Z,3.07
2019-04-26T15:39:23.099Z,3.07
2019-04-26T15:44:33.559Z,3.73
2019-04-26T15:49:47.207Z,3.23
2019-04-26T15:54:58.430Z,3.63
2019-04-26T15:59:59.524Z,4.27
2019-04-26T16:05:05.329Z,4.17
2019-04-26T16:10:13.199Z,3.93
2019-04-26T16:15:18.836Z,3.40
2019-04-26T16:20:24.467Z,3.50
2019-04-26T16:25:34.364Z,3.43
2019-04-26T16:30:47.578Z,3.20
2019-04-26T16:35:53.050Z,3.50
2019-04-26T16:40:58.489Z,3.30
2019-04-26T16:46:04.210Z,3.63
2019-04-26T16:51:10.059Z,3.70
2019-04-26T16:56:16.587Z,4.60
2019-04-26T17:01:23.471Z,4.47
2019-04-26T17:06:29.437Z,4.73
2019-04-26T17:11:39.288Z,4.53
2019-04-26T17:16:44.383Z,5.23
2019-04-26T17:22:14.103Z,6.73
2019-04-26T17:27:22.683Z,6.80
2019-04-26T17:32:35.223Z,6.20
2019-04-26T17:37:47.181Z,8.13
2019-04-26T17:42:53.246Z,7.40
2019-04-26T17:48:01.335Z,8.30
2019-04-26T17:53:10.773Z,9.30
2019-04-26T17:58:33.631Z,10.47
2019-04-26T18:03:38.894Z,12.50
2019-04-26T18:08:51.205Z,13.17
2019-04-26T18:13:53.253Z,12.83
2019-04-26T18:19:24.138Z,12.20
2019-04-26T18:24:32.267Z,12.60
2019-04-26T18:29:37.569Z,14.53
2019-04-26T18:34:44.373Z,14.87
2019-04-26T18:39:49.952Z,17.53
2019-04-26T18:44:57.650Z,19.07
2019-04-26T18:50:03.043Z,18.40
2019-04-26T18:55:21.565Z,19.07
2019-04-26T19:00:33.715Z,18.30
2019-04-26T19:05:39.195Z,17.73
2019-04-26T19:10:44.704Z,17.07
2019-04-26T19:15:57.362Z,16.80
2019-04-26T19:21:38.954Z,18.23
2019-04-26T19:26:44.094Z,16.53
2019-04-26T19:31:56.709Z,16.87
2019-04-26T19:37:03.260Z,15.87
2019-04-26T19:42:08.474Z,17.30
2019-04-26T19:47:45.343Z,15.47
2019-04-26T19:53:01.754Z,13.73
2019-04-26T19:58:16.011Z,14.27
2019-04-26T20:03:19.159Z,15.60
2019-04-26T20:08:29.495Z,17.03
2019-04-26T20:13:35.076Z,15.23
2019-04-26T20:18:41.675Z,13.70
2019-04-26T20:23:48.758Z,11.07
2019-04-26T20:28:55.235Z,11.27
2019-04-26T20:34:01.636Z,11.07
2019-04-26T20:39:12.517Z,10.83
2019-04-26T20:44:23.893Z,11.90
2019-04-26T20:49:25.284Z,9.10
2019-04-26T20:54:31.784Z,8.77
2019-04-26T20:59:37.590Z,8.10
2019-04-26T21:04:46.026Z,8.57
2019-04-26T21:09:52.068Z,8.47
2019-04-26T21:14:57.610Z,8.77
2019-04-26T21:20:03.500Z,8.13
2019-04-26T21:25:15.368Z,7.90
2019-04-26T21:30:48.965Z,6.47
2019-04-26T21:36:13.601Z,8.07
2019-04-26T21:41:23.576Z,6.80
2019-04-26T21:46:33.934Z,8.30
2019-04-26T21:51:40.304Z,7.43
2019-04-26T21:56:49.655Z,7.57
2019-04-26T22:01:59.098Z,8.10
2019-04-26T22:07:05.198Z,7.37
2019-04-26T22:12:13.052Z,7.10
2019-04-26T22:17:24.342Z,5.93
2019-04-26T22:22:41.522Z,6.63
2019-04-26T22:27:45.399Z,6.33
2019-04-26T22:32:54.632Z,6.10
2019-04-26T22:37:58.494Z,6.30
2019-04-26T22:43:20.628Z,6.30
2019-04-26T22:48:31.163Z,7.40
2019-04-26T22:53:36.672Z,7.47
2019-04-26T22:58:44.014Z,8.13
2019-04-26T23:03:50.175Z,7.23
2019-04-26T23:08:55.893Z,7.33
2019-04-26T23:14:35.339Z,6.80
2019-04-26T23:20:03.020Z,7.37
2019-04-26T23:25:08.863Z,6.90
2019-04-26T23:30:15.879Z,6.03
2019-04-26T23:35:21.696Z,6.13
2019-04-26T23:40:28.930Z,6.10
2019-04-26T23:45:36.489Z,5.80
2019-04-26T23:50:42.992Z,6.27
2019-04-26T23:55:48.764Z,5.40
